LCO1513 EDDF-GVAC
Flight info
| Callsign | LCO1513 |
|---|---|
| Flight time | N/A |
| Altitude | 30000 |
| Route | SOBRA1F SOBRA Y180 DIK UN857 TOLVU/N0470F310 DCT RAPOR DCT GIMER DCT ESTOC UT300 PON UN872 ERIGA UZ218 FUJTI DCT ATLEN DCT ABUPI DCT BUSEN DCT BEXAL DCT SAMAR/N0475F330 DCT YUSME DCT LIMAL/N0476F340 N873 IPERA DCT DIMKI DIMKI1S |
| Aircraft | B763/H-SDE3FGHIM3RWXY/LB1 |
Departure
| Time | N/A |
|---|---|
| Airport | Frankfurt Main Airport (EDDF) |
Arrival
| Time | 2026-05-07 18:44 |
|---|---|
| Airport | Amílcar Cabral International Airport (GVAC) |
| Time | Latitude | Longitude | Altitude | Speed | Heading |
|---|---|---|---|---|---|
| 2026-05-07 14:25 | 43.69359 | -5.64754 | 30871 ft | 476 kts | 214° |
| 2026-05-07 14:26 | 43.66509 | -5.67171 | 30868 ft | 477 kts | 213° |
| 2026-05-07 14:26 | 43.60820 | -5.71990 | 30860 ft | 479 kts | 213° |
| 2026-05-07 14:27 | 43.56559 | -5.75590 | 30873 ft | 482 kts | 213° |
| 2026-05-07 14:27 | 43.50757 | -5.80484 | 30860 ft | 482 kts | 213° |
| 2026-05-07 14:28 | 43.45040 | -5.85295 | 30873 ft | 483 kts | 213° |
| 2026-05-07 14:28 | 43.39265 | -5.90144 | 30867 ft | 483 kts | 213° |
| 2026-05-07 14:29 | 43.33532 | -5.94948 | 30875 ft | 485 kts | 213° |
| 2026-05-07 14:29 | 43.27774 | -5.99761 | 30877 ft | 487 kts | 213° |
| 2026-05-07 14:30 | 43.21981 | -6.04592 | 30888 ft | 487 kts | 214° |
| 2026-05-07 14:30 | 43.16187 | -6.09413 | 30900 ft | 487 kts | 214° |
| 2026-05-07 14:31 | 43.10388 | -6.14229 | 30904 ft | 487 kts | 214° |
| 2026-05-07 14:31 | 43.04591 | -6.19031 | 30909 ft | 488 kts | 214° |
| 2026-05-07 14:32 | 42.98804 | -6.23815 | 30906 ft | 489 kts | 214° |
| 2026-05-07 14:32 | 42.92975 | -6.28621 | 30900 ft | 488 kts | 214° |
| 2026-05-07 14:33 | 42.87183 | -6.33387 | 30886 ft | 489 kts | 214° |
| 2026-05-07 14:33 | 42.81310 | -6.38209 | 30883 ft | 489 kts | 214° |
| 2026-05-07 14:34 | 42.75509 | -6.42962 | 30872 ft | 488 kts | 214° |
| 2026-05-07 14:34 | 42.69678 | -6.47729 | 30877 ft | 490 kts | 215° |
| 2026-05-07 14:35 | 42.63807 | -6.52517 | 30875 ft | 490 kts | 215° |
| 2026-05-07 14:35 | 42.57987 | -6.57253 | 30865 ft | 490 kts | 215° |
| 2026-05-07 14:36 | 42.52138 | -6.62004 | 30870 ft | 490 kts | 215° |
| 2026-05-07 14:36 | 42.46416 | -6.66638 | 30867 ft | 490 kts | 214° |
| 2026-05-07 14:37 | 42.40533 | -6.71396 | 30876 ft | 490 kts | 214° |
| 2026-05-07 14:37 | 42.31745 | -6.78480 | 30882 ft | 490 kts | 215° |
| 2026-05-07 14:38 | 42.25859 | -6.83212 | 30882 ft | 490 kts | 215° |
| 2026-05-07 14:38 | 42.19982 | -6.87927 | 30881 ft | 488 kts | 215° |
| 2026-05-07 14:39 | 42.14179 | -6.92573 | 30884 ft | 488 kts | 216° |
| 2026-05-07 14:39 | 42.08320 | -6.97254 | 30886 ft | 489 kts | 216° |
| 2026-05-07 14:40 | 42.02680 | -7.01750 | 30890 ft | 488 kts | 216° |
| 2026-05-07 14:40 | 41.96814 | -7.06416 | 30895 ft | 488 kts | 216° |
| 2026-05-07 14:41 | 41.90950 | -7.11069 | 30896 ft | 487 kts | 216° |
| 2026-05-07 14:41 | 41.85084 | -7.15715 | 30875 ft | 486 kts | 216° |
| 2026-05-07 14:42 | 41.79280 | -7.20302 | 30871 ft | 486 kts | 216° |
| 2026-05-07 14:42 | 41.73507 | -7.24993 | 30869 ft | 481 kts | 221° |
| 2026-05-07 14:43 | 41.68000 | -7.30059 | 30861 ft | 480 kts | 220° |
| 2026-05-07 14:43 | 41.62496 | -7.35081 | 30860 ft | 477 kts | 220° |
| 2026-05-07 14:44 | 41.57008 | -7.40070 | 30861 ft | 478 kts | 221° |
| 2026-05-07 14:44 | 41.51501 | -7.45063 | 30865 ft | 475 kts | 221° |
| 2026-05-07 14:45 | 41.46030 | -7.50015 | 30854 ft | 476 kts | 221° |
| 2026-05-07 14:45 | 41.40544 | -7.54967 | 30865 ft | 476 kts | 221° |
| 2026-05-07 14:46 | 41.35059 | -7.59909 | 30865 ft | 473 kts | 221° |
| 2026-05-07 14:46 | 41.29617 | -7.64801 | 30859 ft | 472 kts | 221° |
| 2026-05-07 14:47 | 41.24123 | -7.69733 | 30855 ft | 474 kts | 220° |
| 2026-05-07 14:47 | 41.18647 | -7.74633 | 30858 ft | 471 kts | 220° |
| 2026-05-07 14:48 | 41.13202 | -7.79499 | 30864 ft | 471 kts | 220° |
| 2026-05-07 14:48 | 41.07769 | -7.84344 | 30867 ft | 470 kts | 220° |
| 2026-05-07 14:49 | 41.02351 | -7.89164 | 30877 ft | 467 kts | 220° |
| 2026-05-07 14:49 | 40.96961 | -7.93952 | 30871 ft | 467 kts | 220° |
| 2026-05-07 14:50 | 40.91539 | -7.98758 | 30874 ft | 468 kts | 220° |
| 2026-05-07 14:50 | 40.86104 | -8.03565 | 30865 ft | 468 kts | 220° |
| 2026-05-07 14:51 | 40.80671 | -8.08362 | 30858 ft | 466 kts | 220° |
| 2026-05-07 14:51 | 40.75291 | -8.13101 | 30860 ft | 465 kts | 220° |
| 2026-05-07 14:52 | 40.69882 | -8.17856 | 30851 ft | 464 kts | 220° |
| 2026-05-07 14:52 | 40.64519 | -8.22564 | 30850 ft | 463 kts | 219° |
| 2026-05-07 14:53 | 40.59296 | -8.27137 | 30855 ft | 463 kts | 220° |
| 2026-05-07 14:53 | 40.53912 | -8.31844 | 30857 ft | 463 kts | 219° |
| 2026-05-07 14:54 | 40.48561 | -8.36513 | 30860 ft | 462 kts | 219° |
| 2026-05-07 14:54 | 40.43182 | -8.41196 | 30861 ft | 461 kts | 219° |
| 2026-05-07 14:55 | 40.37833 | -8.45845 | 30859 ft | 462 kts | 219° |
| 2026-05-07 14:55 | 40.32481 | -8.50487 | 30869 ft | 460 kts | 219° |
| 2026-05-07 14:56 | 40.27105 | -8.55141 | 30861 ft | 461 kts | 219° |
| 2026-05-07 14:56 | 40.21737 | -8.59779 | 30859 ft | 460 kts | 219° |
| 2026-05-07 14:57 | 40.16386 | -8.64393 | 30866 ft | 460 kts | 219° |
| 2026-05-07 14:57 | 40.11048 | -8.68988 | 30879 ft | 461 kts | 218° |
| 2026-05-07 14:58 | 40.05664 | -8.73612 | 30886 ft | 461 kts | 218° |
| 2026-05-07 14:58 | 40.00281 | -8.78227 | 30902 ft | 458 kts | 218° |
| 2026-05-07 14:59 | 39.94982 | -8.82762 | 30896 ft | 458 kts | 218° |
| 2026-05-07 14:59 | 39.89609 | -8.87352 | 30901 ft | 460 kts | 218° |
| 2026-05-07 15:00 | 39.84265 | -8.91907 | 30889 ft | 458 kts | 218° |
| 2026-05-07 15:00 | 39.78904 | -8.96470 | 30887 ft | 459 kts | 218° |
| 2026-05-07 15:01 | 39.73563 | -9.01005 | 30888 ft | 458 kts | 218° |
| 2026-05-07 15:01 | 39.68238 | -9.05520 | 30886 ft | 456 kts | 218° |
| 2026-05-07 15:02 | 39.62946 | -9.09998 | 30892 ft | 455 kts | 218° |
| 2026-05-07 15:02 | 39.57625 | -9.14491 | 30902 ft | 455 kts | 218° |
| 2026-05-07 15:03 | 39.52320 | -9.18963 | 30898 ft | 454 kts | 218° |
| 2026-05-07 15:03 | 39.47006 | -9.23434 | 30902 ft | 453 kts | 218° |
| 2026-05-07 15:04 | 39.41758 | -9.27843 | 30901 ft | 452 kts | 218° |
| 2026-05-07 15:04 | 39.36475 | -9.32273 | 30901 ft | 452 kts | 218° |
| 2026-05-07 15:05 | 39.31196 | -9.36690 | 30899 ft | 451 kts | 217° |
| 2026-05-07 15:05 | 39.26011 | -9.41021 | 30897 ft | 453 kts | 217° |
| 2026-05-07 15:06 | 39.20815 | -9.45353 | 30900 ft | 451 kts | 218° |
| 2026-05-07 15:06 | 39.15558 | -9.49729 | 30901 ft | 450 kts | 218° |
| 2026-05-07 15:07 | 39.10268 | -9.54125 | 30905 ft | 452 kts | 217° |
| 2026-05-07 15:07 | 39.04975 | -9.58512 | 30900 ft | 450 kts | 217° |
| 2026-05-07 15:08 | 38.99733 | -9.62853 | 30904 ft | 449 kts | 217° |
| 2026-05-07 15:08 | 38.94460 | -9.67211 | 30917 ft | 450 kts | 217° |
| 2026-05-07 15:09 | 38.89161 | -9.71581 | 30917 ft | 450 kts | 217° |
| 2026-05-07 15:09 | 38.83898 | -9.75915 | 30921 ft | 451 kts | 216° |
| 2026-05-07 15:10 | 38.78641 | -9.80235 | 30924 ft | 451 kts | 216° |
| 2026-05-07 15:10 | 38.73350 | -9.84576 | 30914 ft | 450 kts | 216° |
| 2026-05-07 15:11 | 38.68103 | -9.88873 | 30920 ft | 448 kts | 216° |
| 2026-05-07 15:11 | 38.62842 | -9.93174 | 30915 ft | 448 kts | 216° |
| 2026-05-07 15:12 | 38.57606 | -9.97447 | 30909 ft | 447 kts | 216° |
| 2026-05-07 15:12 | 38.52139 | -10.01264 | 30917 ft | 448 kts | 208° |
| 2026-05-07 15:13 | 38.46464 | -10.04627 | 30903 ft | 450 kts | 208° |
| 2026-05-07 15:13 | 38.40793 | -10.07948 | 30899 ft | 448 kts | 208° |
| 2026-05-07 15:14 | 38.35131 | -10.11246 | 30902 ft | 447 kts | 208° |
| 2026-05-07 15:14 | 38.29432 | -10.14553 | 30897 ft | 448 kts | 208° |
| 2026-05-07 15:15 | 38.23789 | -10.17819 | 30897 ft | 447 kts | 208° |
| 2026-05-07 15:15 | 38.18116 | -10.21097 | 30901 ft | 445 kts | 208° |
| 2026-05-07 15:16 | 38.12461 | -10.24357 | 30900 ft | 446 kts | 208° |
| 2026-05-07 15:16 | 38.06842 | -10.27591 | 30903 ft | 444 kts | 208° |
| 2026-05-07 15:17 | 38.01205 | -10.30830 | 30915 ft | 444 kts | 208° |
| 2026-05-07 15:17 | 37.95563 | -10.34070 | 30905 ft | 444 kts | 208° |
| 2026-05-07 15:18 | 37.90014 | -10.37247 | 30906 ft | 443 kts | 208° |
| 2026-05-07 15:18 | 37.84382 | -10.40466 | 30901 ft | 444 kts | 208° |
| 2026-05-07 15:19 | 37.78747 | -10.43681 | 30908 ft | 444 kts | 207° |
| 2026-05-07 15:19 | 37.73125 | -10.46886 | 30908 ft | 443 kts | 207° |
| 2026-05-07 15:20 | 37.67456 | -10.50111 | 30915 ft | 442 kts | 207° |
| 2026-05-07 15:20 | 37.61809 | -10.53317 | 30923 ft | 442 kts | 207° |
| 2026-05-07 15:21 | 37.56124 | -10.56540 | 30923 ft | 444 kts | 207° |
| 2026-05-07 15:21 | 37.50502 | -10.59723 | 30920 ft | 442 kts | 207° |
| 2026-05-07 15:22 | 37.44882 | -10.62899 | 30920 ft | 442 kts | 207° |
| 2026-05-07 15:22 | 37.39225 | -10.66089 | 30926 ft | 442 kts | 206° |
| 2026-05-07 15:23 | 37.33596 | -10.69259 | 30923 ft | 443 kts | 207° |
| 2026-05-07 15:23 | 37.27918 | -10.72453 | 30924 ft | 444 kts | 206° |
| 2026-05-07 15:24 | 37.22247 | -10.75636 | 30926 ft | 443 kts | 206° |
| 2026-05-07 15:24 | 37.16608 | -10.78796 | 30924 ft | 442 kts | 206° |
| 2026-05-07 15:25 | 37.10981 | -10.81944 | 30925 ft | 442 kts | 206° |
| 2026-05-07 15:25 | 37.05345 | -10.85090 | 30920 ft | 442 kts | 206° |
| 2026-05-07 15:26 | 36.99915 | -10.88121 | 30927 ft | 442 kts | 206° |
| 2026-05-07 15:26 | 36.94292 | -10.91252 | 30917 ft | 442 kts | 207° |
| 2026-05-07 15:27 | 36.88685 | -10.94369 | 30925 ft | 442 kts | 206° |
| 2026-05-07 15:27 | 36.83049 | -10.97496 | 30934 ft | 440 kts | 206° |
| 2026-05-07 15:28 | 36.77443 | -11.00602 | 30934 ft | 439 kts | 206° |
| 2026-05-07 15:28 | 36.71878 | -11.03682 | 30934 ft | 440 kts | 206° |
| 2026-05-07 15:29 | 36.66274 | -11.06776 | 30935 ft | 439 kts | 206° |
| 2026-05-07 15:29 | 36.60705 | -11.09847 | 30933 ft | 437 kts | 206° |
| 2026-05-07 15:30 | 36.55142 | -11.12910 | 30933 ft | 438 kts | 206° |
| 2026-05-07 15:30 | 36.49544 | -11.15988 | 30938 ft | 437 kts | 206° |
| 2026-05-07 15:31 | 36.44014 | -11.19023 | 30943 ft | 436 kts | 206° |
| 2026-05-07 15:31 | 36.38467 | -11.22063 | 30944 ft | 436 kts | 206° |
| 2026-05-07 15:32 | 36.32895 | -11.25111 | 30943 ft | 436 kts | 206° |
| 2026-05-07 15:32 | 36.27344 | -11.28143 | 30941 ft | 436 kts | 206° |
| 2026-05-07 15:33 | 36.21781 | -11.31177 | 30939 ft | 436 kts | 206° |
| 2026-05-07 15:33 | 36.16258 | -11.34185 | 30940 ft | 434 kts | 206° |
| 2026-05-07 15:34 | 36.10727 | -11.37192 | 30936 ft | 433 kts | 206° |
| 2026-05-07 15:34 | 36.05204 | -11.40191 | 30933 ft | 433 kts | 206° |
| 2026-05-07 15:35 | 35.99692 | -11.43178 | 30931 ft | 432 kts | 206° |
| 2026-05-07 15:35 | 35.94246 | -11.46315 | 30930 ft | 432 kts | 210° |
| 2026-05-07 15:36 | 35.88891 | -11.49672 | 30923 ft | 432 kts | 209° |
| 2026-05-07 15:36 | 35.83519 | -11.53029 | 30926 ft | 430 kts | 210° |
| 2026-05-07 15:37 | 35.78178 | -11.56360 | 30927 ft | 432 kts | 209° |
| 2026-05-07 15:37 | 35.72799 | -11.59709 | 30931 ft | 431 kts | 209° |
| 2026-05-07 15:38 | 35.67635 | -11.62918 | 30930 ft | 430 kts | 209° |
| 2026-05-07 15:38 | 35.62288 | -11.66236 | 30941 ft | 430 kts | 209° |
| 2026-05-07 15:39 | 35.56932 | -11.69555 | 30939 ft | 430 kts | 209° |
| 2026-05-07 15:39 | 35.51586 | -11.72863 | 30936 ft | 429 kts | 209° |
| 2026-05-07 15:40 | 35.46252 | -11.76157 | 30936 ft | 430 kts | 209° |
| 2026-05-07 15:40 | 35.40911 | -11.79452 | 30937 ft | 431 kts | 209° |
| 2026-05-07 15:41 | 35.35543 | -11.82758 | 30939 ft | 429 kts | 209° |
| 2026-05-07 15:41 | 35.30221 | -11.86032 | 30940 ft | 429 kts | 209° |
| 2026-05-07 15:42 | 35.24886 | -11.89308 | 30941 ft | 428 kts | 209° |
| 2026-05-07 15:42 | 35.19567 | -11.92570 | 30943 ft | 429 kts | 209° |
| 2026-05-07 15:43 | 35.14232 | -11.95836 | 30944 ft | 429 kts | 209° |
| 2026-05-07 15:43 | 35.08895 | -11.99099 | 30941 ft | 427 kts | 209° |
| 2026-05-07 15:44 | 35.03595 | -12.02334 | 30938 ft | 426 kts | 209° |
| 2026-05-07 15:44 | 34.98268 | -12.05581 | 30941 ft | 427 kts | 209° |
| 2026-05-07 15:45 | 34.92990 | -12.08794 | 30939 ft | 426 kts | 209° |
| 2026-05-07 15:45 | 34.87803 | -12.11947 | 30953 ft | 426 kts | 209° |
| 2026-05-07 15:46 | 34.79845 | -12.16776 | 30948 ft | 427 kts | 209° |
| 2026-05-07 15:47 | 34.74531 | -12.19994 | 30944 ft | 426 kts | 209° |
| 2026-05-07 15:47 | 34.69195 | -12.23220 | 30944 ft | 426 kts | 209° |
| 2026-05-07 15:48 | 34.63896 | -12.26421 | 30946 ft | 426 kts | 209° |
| 2026-05-07 15:48 | 34.58604 | -12.29611 | 30946 ft | 426 kts | 209° |
| 2026-05-07 15:49 | 34.53310 | -12.32800 | 30946 ft | 424 kts | 209° |
| 2026-05-07 15:49 | 34.48085 | -12.35941 | 30948 ft | 425 kts | 210° |
| 2026-05-07 15:50 | 34.42778 | -12.39128 | 30946 ft | 425 kts | 209° |
| 2026-05-07 15:50 | 34.37450 | -12.42324 | 30945 ft | 425 kts | 209° |
| 2026-05-07 15:51 | 34.32167 | -12.45486 | 30943 ft | 424 kts | 209° |
| 2026-05-07 15:51 | 34.26873 | -12.48651 | 30944 ft | 424 kts | 209° |
| 2026-05-07 15:52 | 34.21542 | -12.51834 | 30947 ft | 425 kts | 209° |
| 2026-05-07 15:52 | 34.16816 | -12.54653 | 30945 ft | 424 kts | 209° |
| 2026-05-07 15:53 | 34.11482 | -12.57828 | 30950 ft | 424 kts | 209° |
| 2026-05-07 15:53 | 34.06170 | -12.60986 | 30945 ft | 424 kts | 210° |
| 2026-05-07 15:54 | 34.00884 | -12.64126 | 30947 ft | 423 kts | 210° |
| 2026-05-07 15:54 | 33.95610 | -12.67252 | 30956 ft | 423 kts | 209° |
| 2026-05-07 15:55 | 33.90310 | -12.70390 | 30957 ft | 424 kts | 209° |
| 2026-05-07 15:55 | 33.84982 | -12.73542 | 30970 ft | 424 kts | 209° |
| 2026-05-07 15:56 | 33.79685 | -12.76668 | 30971 ft | 422 kts | 209° |
| 2026-05-07 15:56 | 33.74408 | -12.79782 | 30972 ft | 423 kts | 209° |
| 2026-05-07 15:57 | 33.69119 | -12.82894 | 30974 ft | 422 kts | 209° |
| 2026-05-07 15:57 | 33.63845 | -12.85996 | 30969 ft | 422 kts | 209° |
| 2026-05-07 15:58 | 33.58586 | -12.89084 | 30968 ft | 421 kts | 209° |
| 2026-05-07 15:58 | 33.53315 | -12.92177 | 30970 ft | 422 kts | 209° |
| 2026-05-07 15:59 | 33.48023 | -12.95276 | 30968 ft | 423 kts | 209° |
| 2026-05-07 15:59 | 33.42732 | -12.98369 | 30964 ft | 421 kts | 209° |
| 2026-05-07 16:00 | 33.37462 | -13.01448 | 30964 ft | 422 kts | 209° |
| 2026-05-07 16:00 | 33.32190 | -13.04523 | 30965 ft | 421 kts | 209° |
| 2026-05-07 16:01 | 33.26920 | -13.07592 | 30963 ft | 422 kts | 209° |
| 2026-05-07 16:01 | 33.21676 | -13.10642 | 30966 ft | 420 kts | 210° |
| 2026-05-07 16:02 | 33.16415 | -13.13699 | 30959 ft | 419 kts | 210° |
| 2026-05-07 16:02 | 33.11168 | -13.16742 | 30962 ft | 420 kts | 209° |
| 2026-05-07 16:03 | 33.05884 | -13.19803 | 30962 ft | 421 kts | 209° |
| 2026-05-07 16:03 | 33.00648 | -13.22832 | 30957 ft | 419 kts | 210° |
| 2026-05-07 16:04 | 32.95382 | -13.25874 | 30956 ft | 420 kts | 210° |
| 2026-05-07 16:04 | 32.90108 | -13.28918 | 30943 ft | 419 kts | 210° |
| 2026-05-07 16:05 | 32.85034 | -13.31843 | 30954 ft | 421 kts | 210° |
| 2026-05-07 16:05 | 32.79745 | -13.34887 | 30957 ft | 419 kts | 210° |
| 2026-05-07 16:06 | 32.74501 | -13.37902 | 30954 ft | 421 kts | 210° |
| 2026-05-07 16:06 | 32.69215 | -13.40935 | 30957 ft | 418 kts | 210° |
| 2026-05-07 16:07 | 32.63983 | -13.43934 | 30965 ft | 417 kts | 210° |
| 2026-05-07 16:07 | 32.58718 | -13.46949 | 30966 ft | 420 kts | 210° |
| 2026-05-07 16:08 | 32.53479 | -13.49944 | 30971 ft | 420 kts | 210° |
| 2026-05-07 16:08 | 32.48194 | -13.52962 | 30967 ft | 420 kts | 210° |
| 2026-05-07 16:09 | 32.42901 | -13.55979 | 30971 ft | 418 kts | 210° |
| 2026-05-07 16:09 | 32.37649 | -13.58972 | 30963 ft | 419 kts | 210° |
| 2026-05-07 16:10 | 32.32406 | -13.61953 | 30971 ft | 418 kts | 210° |
| 2026-05-07 16:10 | 32.27196 | -13.64913 | 30964 ft | 419 kts | 211° |
| 2026-05-07 16:11 | 32.21910 | -13.67912 | 30976 ft | 421 kts | 210° |
| 2026-05-07 16:11 | 32.16661 | -13.70885 | 30979 ft | 419 kts | 210° |
| 2026-05-07 16:12 | 32.11376 | -13.73876 | 30977 ft | 418 kts | 210° |
| 2026-05-07 16:12 | 32.06127 | -13.76841 | 30980 ft | 418 kts | 210° |
| 2026-05-07 16:13 | 32.00822 | -13.79836 | 30974 ft | 419 kts | 210° |
| 2026-05-07 16:13 | 31.95542 | -13.82813 | 30978 ft | 419 kts | 211° |
| 2026-05-07 16:14 | 31.90235 | -13.85800 | 30976 ft | 418 kts | 210° |
| 2026-05-07 16:14 | 31.84955 | -13.88768 | 30979 ft | 418 kts | 210° |
| 2026-05-07 16:15 | 31.79767 | -13.91682 | 30971 ft | 420 kts | 211° |
| 2026-05-07 16:15 | 31.74440 | -13.94670 | 30969 ft | 421 kts | 211° |
| 2026-05-07 16:16 | 31.69153 | -13.97630 | 30968 ft | 419 kts | 211° |
| 2026-05-07 16:16 | 31.63876 | -14.00583 | 30965 ft | 418 kts | 210° |
| 2026-05-07 16:17 | 31.58620 | -14.03520 | 30969 ft | 422 kts | 211° |
| 2026-05-07 16:17 | 31.53340 | -14.06466 | 30965 ft | 421 kts | 211° |
| 2026-05-07 16:18 | 31.48020 | -14.09430 | 30965 ft | 421 kts | 211° |
| 2026-05-07 16:18 | 31.42706 | -14.12387 | 30965 ft | 422 kts | 210° |
| 2026-05-07 16:19 | 31.37407 | -14.15331 | 30962 ft | 423 kts | 211° |
| 2026-05-07 16:19 | 31.32084 | -14.18287 | 30962 ft | 424 kts | 211° |
| 2026-05-07 16:20 | 31.26733 | -14.21255 | 30960 ft | 422 kts | 211° |
| 2026-05-07 16:20 | 31.21442 | -14.24185 | 30963 ft | 423 kts | 211° |
| 2026-05-07 16:21 | 31.16075 | -14.27153 | 30962 ft | 422 kts | 211° |
| 2026-05-07 16:21 | 31.10898 | -14.30013 | 30963 ft | 422 kts | 211° |
| 2026-05-07 16:22 | 31.05551 | -14.32962 | 30965 ft | 424 kts | 211° |
| 2026-05-07 16:22 | 31.00185 | -14.35918 | 30956 ft | 421 kts | 212° |
| 2026-05-07 16:23 | 30.94830 | -14.38866 | 30964 ft | 422 kts | 212° |
| 2026-05-07 16:23 | 30.89521 | -14.41793 | 30966 ft | 420 kts | 212° |
| 2026-05-07 16:24 | 30.84247 | -14.44850 | 30974 ft | 422 kts | 213° |
| 2026-05-07 16:24 | 30.78976 | -14.47901 | 31161 ft | 422 kts | 213° |
| 2026-05-07 16:24 | 30.76335 | -14.49427 | 31426 ft | 423 kts | 213° |
| 2026-05-07 16:25 | 30.73703 | -14.50946 | 31825 ft | 421 kts | 213° |
| 2026-05-07 16:25 | 30.71042 | -14.52482 | 32135 ft | 420 kts | 213° |
| 2026-05-07 16:25 | 30.68417 | -14.53995 | 32472 ft | 419 kts | 213° |
| 2026-05-07 16:25 | 30.65780 | -14.55516 | 32708 ft | 420 kts | 214° |
| 2026-05-07 16:26 | 30.63162 | -14.57025 | 32983 ft | 418 kts | 213° |
| 2026-05-07 16:26 | 30.57922 | -14.60042 | 32983 ft | 419 kts | 213° |
| 2026-05-07 16:27 | 30.52708 | -14.63039 | 32974 ft | 415 kts | 213° |
| 2026-05-07 16:27 | 30.47515 | -14.66022 | 32995 ft | 416 kts | 213° |
| 2026-05-07 16:28 | 30.42311 | -14.69008 | 32996 ft | 419 kts | 213° |
| 2026-05-07 16:28 | 30.37020 | -14.72039 | 33000 ft | 424 kts | 213° |
| 2026-05-07 16:29 | 30.31720 | -14.75070 | 33003 ft | 422 kts | 213° |
| 2026-05-07 16:29 | 30.26556 | -14.78021 | 33002 ft | 423 kts | 213° |
| 2026-05-07 16:30 | 30.21274 | -14.81037 | 32998 ft | 424 kts | 213° |
| 2026-05-07 16:30 | 30.15965 | -14.84062 | 32992 ft | 423 kts | 213° |
| 2026-05-07 16:31 | 30.10703 | -14.87058 | 32996 ft | 422 kts | 213° |
| 2026-05-07 16:31 | 30.05401 | -14.90075 | 32998 ft | 425 kts | 213° |
| 2026-05-07 16:32 | 30.00081 | -14.93097 | 32998 ft | 427 kts | 213° |
| 2026-05-07 16:32 | 29.94790 | -14.96096 | 32993 ft | 423 kts | 214° |
| 2026-05-07 16:33 | 29.89497 | -14.99096 | 32998 ft | 423 kts | 214° |
| 2026-05-07 16:33 | 29.84180 | -15.02109 | 32998 ft | 429 kts | 213° |
| 2026-05-07 16:34 | 29.78869 | -15.05109 | 32994 ft | 427 kts | 213° |
| 2026-05-07 16:34 | 29.73512 | -15.08134 | 32996 ft | 425 kts | 213° |
| 2026-05-07 16:35 | 29.68192 | -15.11134 | 32996 ft | 428 kts | 214° |
| 2026-05-07 16:35 | 29.62820 | -15.14161 | 32991 ft | 429 kts | 213° |
| 2026-05-07 16:36 | 29.57512 | -15.17147 | 32992 ft | 429 kts | 213° |
| 2026-05-07 16:36 | 29.52132 | -15.20169 | 32990 ft | 428 kts | 214° |
| 2026-05-07 16:37 | 29.46754 | -15.23189 | 32990 ft | 428 kts | 214° |
| 2026-05-07 16:37 | 29.41403 | -15.26189 | 32990 ft | 430 kts | 213° |
| 2026-05-07 16:38 | 29.36097 | -15.29162 | 32994 ft | 431 kts | 213° |
| 2026-05-07 16:38 | 29.30686 | -15.32186 | 32989 ft | 429 kts | 213° |
| 2026-05-07 16:39 | 29.25344 | -15.35172 | 32988 ft | 430 kts | 214° |
| 2026-05-07 16:39 | 29.19912 | -15.38204 | 32988 ft | 432 kts | 213° |
| 2026-05-07 16:40 | 29.14526 | -15.41203 | 32989 ft | 431 kts | 214° |
| 2026-05-07 16:40 | 29.09138 | -15.44203 | 32987 ft | 431 kts | 214° |
| 2026-05-07 16:41 | 29.03706 | -15.47225 | 32989 ft | 436 kts | 213° |
| 2026-05-07 16:41 | 28.98229 | -15.50266 | 32987 ft | 433 kts | 213° |
| 2026-05-07 16:42 | 28.92838 | -15.53256 | 32987 ft | 432 kts | 213° |
| 2026-05-07 16:42 | 28.87379 | -15.56282 | 32987 ft | 434 kts | 213° |
| 2026-05-07 16:43 | 28.81933 | -15.59297 | 32987 ft | 436 kts | 213° |
| 2026-05-07 16:43 | 28.76457 | -15.62322 | 32984 ft | 435 kts | 213° |
| 2026-05-07 16:44 | 28.70975 | -15.65349 | 32993 ft | 435 kts | 213° |
| 2026-05-07 16:44 | 28.65536 | -15.68350 | 32999 ft | 436 kts | 213° |
| 2026-05-07 16:45 | 28.60031 | -15.71382 | 32996 ft | 437 kts | 213° |
| 2026-05-07 16:45 | 28.54549 | -15.74397 | 32994 ft | 436 kts | 213° |
| 2026-05-07 16:46 | 28.49092 | -15.77397 | 32994 ft | 437 kts | 213° |
| 2026-05-07 16:46 | 28.43539 | -15.80446 | 32995 ft | 440 kts | 213° |
| 2026-05-07 16:47 | 28.37993 | -15.83486 | 32994 ft | 441 kts | 213° |
| 2026-05-07 16:47 | 28.32512 | -15.86486 | 32991 ft | 438 kts | 213° |
| 2026-05-07 16:48 | 28.26976 | -15.89516 | 32996 ft | 440 kts | 213° |
| 2026-05-07 16:48 | 28.21436 | -15.92542 | 32993 ft | 440 kts | 213° |
| 2026-05-07 16:49 | 28.16309 | -15.95341 | 32995 ft | 442 kts | 213° |
| 2026-05-07 16:49 | 28.10740 | -15.98377 | 32990 ft | 440 kts | 213° |
| 2026-05-07 16:50 | 28.05192 | -16.01400 | 32992 ft | 444 kts | 213° |
| 2026-05-07 16:50 | 27.99612 | -16.04434 | 32979 ft | 446 kts | 213° |
| 2026-05-07 16:51 | 27.93999 | -16.07483 | 32977 ft | 445 kts | 213° |
| 2026-05-07 16:51 | 27.88432 | -16.10504 | 32977 ft | 444 kts | 213° |
| 2026-05-07 16:52 | 27.83332 | -16.13268 | 32977 ft | 444 kts | 212° |
| 2026-05-07 16:52 | 27.77738 | -16.16297 | 32976 ft | 444 kts | 212° |
| 2026-05-07 16:53 | 27.72148 | -16.19320 | 32973 ft | 445 kts | 212° |
| 2026-05-07 16:53 | 27.67077 | -16.22060 | 32975 ft | 447 kts | 212° |
| 2026-05-07 16:54 | 27.61441 | -16.25100 | 32975 ft | 447 kts | 212° |
| 2026-05-07 16:54 | 27.55813 | -16.28133 | 32977 ft | 447 kts | 212° |
| 2026-05-07 16:55 | 27.50207 | -16.31151 | 32976 ft | 446 kts | 212° |
| 2026-05-07 16:55 | 27.44590 | -16.34171 | 32973 ft | 446 kts | 212° |
| 2026-05-07 16:56 | 27.38979 | -16.37186 | 32974 ft | 448 kts | 212° |
| 2026-05-07 16:56 | 27.30667 | -16.41644 | 32970 ft | 448 kts | 212° |
| 2026-05-07 16:57 | 27.25052 | -16.44651 | 32970 ft | 449 kts | 212° |
| 2026-05-07 16:57 | 27.19396 | -16.47677 | 32973 ft | 447 kts | 212° |
| 2026-05-07 16:58 | 27.13753 | -16.50693 | 32969 ft | 448 kts | 212° |
| 2026-05-07 16:58 | 27.08259 | -16.53625 | 32968 ft | 446 kts | 212° |
| 2026-05-07 16:59 | 27.02619 | -16.56634 | 32965 ft | 449 kts | 212° |
| 2026-05-07 16:59 | 26.96970 | -16.59642 | 32966 ft | 448 kts | 212° |
| 2026-05-07 17:00 | 26.91329 | -16.62643 | 32966 ft | 449 kts | 212° |
| 2026-05-07 17:00 | 26.85617 | -16.65679 | 32981 ft | 450 kts | 211° |
| 2026-05-07 17:01 | 26.79941 | -16.68692 | 32978 ft | 451 kts | 211° |
| 2026-05-07 17:01 | 26.74366 | -16.71647 | 32985 ft | 450 kts | 211° |
| 2026-05-07 17:02 | 26.68771 | -16.74611 | 32984 ft | 450 kts | 211° |
| 2026-05-07 17:02 | 26.63105 | -16.77608 | 32989 ft | 450 kts | 211° |
| 2026-05-07 17:03 | 26.57440 | -16.80603 | 32981 ft | 451 kts | 211° |
| 2026-05-07 17:03 | 26.51775 | -16.83593 | 32986 ft | 451 kts | 211° |
| 2026-05-07 17:04 | 26.46085 | -16.86594 | 32993 ft | 451 kts | 211° |
| 2026-05-07 17:04 | 26.40395 | -16.89591 | 32995 ft | 450 kts | 211° |
| 2026-05-07 17:05 | 26.34733 | -16.92571 | 32994 ft | 451 kts | 211° |
| 2026-05-07 17:05 | 26.29053 | -16.95557 | 32992 ft | 451 kts | 211° |
| 2026-05-07 17:06 | 26.23353 | -16.98548 | 32994 ft | 451 kts | 211° |
| 2026-05-07 17:06 | 26.17667 | -17.01531 | 32993 ft | 450 kts | 211° |
| 2026-05-07 17:07 | 26.11985 | -17.04508 | 32997 ft | 451 kts | 211° |
| 2026-05-07 17:07 | 26.06301 | -17.07482 | 32988 ft | 451 kts | 211° |
| 2026-05-07 17:08 | 26.00606 | -17.10460 | 32990 ft | 451 kts | 211° |
| 2026-05-07 17:08 | 25.94940 | -17.13419 | 32992 ft | 450 kts | 210° |
| 2026-05-07 17:09 | 25.89228 | -17.16399 | 32991 ft | 452 kts | 211° |
| 2026-05-07 17:09 | 25.83524 | -17.19371 | 32991 ft | 452 kts | 211° |
| 2026-05-07 17:10 | 25.77925 | -17.22285 | 32986 ft | 452 kts | 211° |
| 2026-05-07 17:10 | 25.72213 | -17.25256 | 32987 ft | 452 kts | 210° |
| 2026-05-07 17:11 | 25.66516 | -17.28215 | 32984 ft | 452 kts | 211° |
| 2026-05-07 17:11 | 25.60805 | -17.31179 | 32988 ft | 453 kts | 210° |
| 2026-05-07 17:12 | 25.55117 | -17.34127 | 32987 ft | 453 kts | 210° |
| 2026-05-07 17:12 | 25.49390 | -17.37091 | 32988 ft | 453 kts | 210° |
| 2026-05-07 17:13 | 25.43688 | -17.40041 | 32988 ft | 453 kts | 210° |
| 2026-05-07 17:13 | 25.37928 | -17.43017 | 32985 ft | 453 kts | 210° |
| 2026-05-07 17:14 | 25.32210 | -17.45969 | 32981 ft | 454 kts | 210° |
| 2026-05-07 17:14 | 25.26502 | -17.48912 | 32982 ft | 452 kts | 210° |
| 2026-05-07 17:15 | 25.20777 | -17.51861 | 32981 ft | 453 kts | 210° |
| 2026-05-07 17:15 | 25.15076 | -17.54794 | 32977 ft | 453 kts | 210° |
| 2026-05-07 17:16 | 25.09359 | -17.57733 | 32968 ft | 453 kts | 210° |
| 2026-05-07 17:16 | 25.03630 | -17.60675 | 32974 ft | 454 kts | 210° |
| 2026-05-07 17:17 | 24.98040 | -17.63865 | 32979 ft | 449 kts | 217° |
| 2026-05-07 17:17 | 24.92719 | -17.67559 | 32982 ft | 451 kts | 216° |
| 2026-05-07 17:18 | 24.87405 | -17.71229 | 32977 ft | 449 kts | 216° |
| 2026-05-07 17:18 | 24.82121 | -17.74872 | 32975 ft | 449 kts | 216° |
| 2026-05-07 17:19 | 24.76831 | -17.78517 | 32977 ft | 450 kts | 216° |
| 2026-05-07 17:19 | 24.71518 | -17.82173 | 32972 ft | 450 kts | 216° |
| 2026-05-07 17:20 | 24.66200 | -17.85827 | 32976 ft | 450 kts | 216° |
| 2026-05-07 17:20 | 24.60889 | -17.89475 | 32976 ft | 450 kts | 216° |
| 2026-05-07 17:21 | 24.55573 | -17.93120 | 32975 ft | 450 kts | 216° |
| 2026-05-07 17:21 | 24.50257 | -17.96764 | 32976 ft | 450 kts | 216° |
| 2026-05-07 17:22 | 24.44953 | -18.00394 | 32975 ft | 450 kts | 216° |
| 2026-05-07 17:22 | 24.39604 | -18.04052 | 32975 ft | 450 kts | 216° |
| 2026-05-07 17:23 | 24.34295 | -18.07679 | 32974 ft | 450 kts | 216° |
| 2026-05-07 17:23 | 24.28975 | -18.11310 | 32974 ft | 450 kts | 216° |
| 2026-05-07 17:24 | 24.23675 | -18.14923 | 32974 ft | 450 kts | 216° |
| 2026-05-07 17:24 | 24.18344 | -18.18554 | 32973 ft | 450 kts | 216° |
| 2026-05-07 17:25 | 24.13024 | -18.22174 | 32973 ft | 450 kts | 216° |
| 2026-05-07 17:25 | 24.07836 | -18.25702 | 32972 ft | 450 kts | 215° |
| 2026-05-07 17:26 | 24.02503 | -18.29323 | 32972 ft | 450 kts | 215° |
| 2026-05-07 17:26 | 23.97174 | -18.32938 | 32972 ft | 451 kts | 215° |
| 2026-05-07 17:27 | 23.91824 | -18.36564 | 32971 ft | 451 kts | 216° |
| 2026-05-07 17:27 | 23.86522 | -18.40154 | 32972 ft | 451 kts | 216° |
| 2026-05-07 17:28 | 23.81173 | -18.43773 | 32972 ft | 451 kts | 215° |
| 2026-05-07 17:28 | 23.75839 | -18.47377 | 32972 ft | 451 kts | 215° |
| 2026-05-07 17:29 | 23.70484 | -18.50992 | 32972 ft | 451 kts | 216° |
| 2026-05-07 17:29 | 23.65151 | -18.54588 | 32970 ft | 450 kts | 216° |
| 2026-05-07 17:30 | 23.59918 | -18.58115 | 32970 ft | 450 kts | 216° |
| 2026-05-07 17:30 | 23.54559 | -18.61722 | 32969 ft | 450 kts | 216° |
| 2026-05-07 17:31 | 23.49414 | -18.65182 | 32968 ft | 450 kts | 215° |
| 2026-05-07 17:31 | 23.44078 | -18.68768 | 32972 ft | 450 kts | 215° |
| 2026-05-07 17:32 | 23.38750 | -18.72344 | 32973 ft | 451 kts | 215° |
| 2026-05-07 17:32 | 23.34628 | -18.75109 | 32973 ft | 451 kts | 215° |
| 2026-05-07 17:33 | 23.28374 | -18.79300 | 32974 ft | 452 kts | 215° |
| 2026-05-07 17:33 | 23.23018 | -18.82884 | 32975 ft | 452 kts | 215° |
| 2026-05-07 17:34 | 23.17629 | -18.86487 | 32974 ft | 451 kts | 215° |
| 2026-05-07 17:34 | 23.12272 | -18.90067 | 32973 ft | 450 kts | 215° |
| 2026-05-07 17:35 | 23.06919 | -18.93640 | 32973 ft | 449 kts | 215° |
| 2026-05-07 17:35 | 23.01588 | -18.97195 | 32973 ft | 450 kts | 215° |
| 2026-05-07 17:36 | 22.96243 | -19.00755 | 32973 ft | 450 kts | 215° |
| 2026-05-07 17:36 | 22.91052 | -19.04210 | 32972 ft | 449 kts | 215° |
| 2026-05-07 17:37 | 22.85683 | -19.07781 | 32965 ft | 450 kts | 215° |
| 2026-05-07 17:37 | 22.80325 | -19.11340 | 32956 ft | 451 kts | 215° |
| 2026-05-07 17:38 | 22.74960 | -19.14901 | 32958 ft | 451 kts | 215° |
| 2026-05-07 17:38 | 22.69564 | -19.18479 | 32956 ft | 451 kts | 215° |
| 2026-05-07 17:39 | 22.64411 | -19.21892 | 32955 ft | 452 kts | 215° |
| 2026-05-07 17:39 | 22.59045 | -19.25444 | 32954 ft | 451 kts | 215° |
| 2026-05-07 17:40 | 22.53660 | -19.29005 | 32954 ft | 452 kts | 215° |
| 2026-05-07 17:40 | 22.48322 | -19.32531 | 32956 ft | 451 kts | 215° |
| 2026-05-07 17:41 | 22.42903 | -19.36108 | 32951 ft | 451 kts | 215° |
| 2026-05-07 17:41 | 22.37530 | -19.39652 | 32954 ft | 452 kts | 215° |
| 2026-05-07 17:42 | 22.32164 | -19.43187 | 32952 ft | 452 kts | 215° |
| 2026-05-07 17:42 | 22.26788 | -19.46726 | 32949 ft | 453 kts | 215° |
| 2026-05-07 17:43 | 22.21379 | -19.50283 | 32946 ft | 453 kts | 215° |
| 2026-05-07 17:43 | 22.16015 | -19.53807 | 32948 ft | 453 kts | 215° |
| 2026-05-07 17:44 | 22.10643 | -19.57334 | 32950 ft | 453 kts | 215° |
| 2026-05-07 17:44 | 22.05233 | -19.60882 | 32948 ft | 453 kts | 215° |
| 2026-05-07 17:45 | 21.99848 | -19.64409 | 32947 ft | 453 kts | 215° |
| 2026-05-07 17:45 | 21.94459 | -19.67937 | 32956 ft | 454 kts | 215° |
| 2026-05-07 17:46 | 21.89068 | -19.71463 | 32954 ft | 454 kts | 215° |
| 2026-05-07 17:46 | 21.83658 | -19.74998 | 32956 ft | 455 kts | 215° |
| 2026-05-07 17:47 | 21.78508 | -19.78360 | 32965 ft | 455 kts | 215° |
| 2026-05-07 17:47 | 21.73070 | -19.81907 | 32966 ft | 454 kts | 215° |
| 2026-05-07 17:48 | 21.67670 | -19.85426 | 32972 ft | 455 kts | 215° |
| 2026-05-07 17:48 | 21.62271 | -19.88941 | 32970 ft | 454 kts | 215° |
| 2026-05-07 17:49 | 21.56862 | -19.92460 | 32977 ft | 455 kts | 215° |
| 2026-05-07 17:49 | 21.51429 | -19.95991 | 32970 ft | 455 kts | 215° |
| 2026-05-07 17:50 | 21.45999 | -19.99517 | 32975 ft | 455 kts | 215° |
| 2026-05-07 17:50 | 21.40570 | -20.03040 | 32974 ft | 454 kts | 215° |
| 2026-05-07 17:51 | 21.35172 | -20.06539 | 32974 ft | 455 kts | 215° |
| 2026-05-07 17:51 | 21.29760 | -20.10044 | 32974 ft | 455 kts | 215° |
| 2026-05-07 17:52 | 21.24218 | -20.13630 | 32973 ft | 456 kts | 215° |
| 2026-05-07 17:52 | 21.18800 | -20.17133 | 32973 ft | 455 kts | 215° |
| 2026-05-07 17:53 | 21.13361 | -20.20647 | 32973 ft | 456 kts | 215° |
| 2026-05-07 17:53 | 21.07894 | -20.24175 | 32971 ft | 457 kts | 215° |
| 2026-05-07 17:54 | 21.02423 | -20.27702 | 32967 ft | 457 kts | 215° |
| 2026-05-07 17:54 | 20.96973 | -20.31215 | 32959 ft | 457 kts | 215° |
| 2026-05-07 17:55 | 20.91524 | -20.34722 | 32959 ft | 457 kts | 215° |
| 2026-05-07 17:55 | 20.86073 | -20.38228 | 32961 ft | 457 kts | 215° |
| 2026-05-07 17:56 | 20.80616 | -20.41736 | 32962 ft | 458 kts | 215° |
| 2026-05-07 17:56 | 20.75126 | -20.45260 | 32962 ft | 458 kts | 214° |
| 2026-05-07 17:57 | 20.70562 | -20.48189 | 32961 ft | 459 kts | 214° |
| 2026-05-07 17:57 | 20.64185 | -20.52277 | 32965 ft | 458 kts | 214° |
| 2026-05-07 17:58 | 20.58695 | -20.55792 | 32965 ft | 459 kts | 214° |
| 2026-05-07 17:58 | 20.53221 | -20.59295 | 32967 ft | 460 kts | 214° |
| 2026-05-07 17:59 | 20.47719 | -20.62813 | 32965 ft | 461 kts | 214° |
| 2026-05-07 17:59 | 20.42226 | -20.66322 | 32975 ft | 461 kts | 214° |
| 2026-05-07 18:00 | 20.36681 | -20.69861 | 32974 ft | 461 kts | 214° |
| 2026-05-07 18:00 | 20.31208 | -20.73343 | 32975 ft | 459 kts | 214° |
| 2026-05-07 18:01 | 20.25713 | -20.76837 | 32974 ft | 459 kts | 214° |
| 2026-05-07 18:01 | 20.20187 | -20.80348 | 32975 ft | 460 kts | 214° |
| 2026-05-07 18:02 | 20.11922 | -20.85592 | 32976 ft | 461 kts | 214° |
| 2026-05-07 18:03 | 20.06426 | -20.89075 | 32977 ft | 460 kts | 214° |
| 2026-05-07 18:03 | 20.00949 | -20.92545 | 32975 ft | 459 kts | 214° |
| 2026-05-07 18:04 | 19.95448 | -20.96026 | 32975 ft | 460 kts | 214° |
| 2026-05-07 18:04 | 19.89926 | -20.99518 | 32975 ft | 461 kts | 214° |
| 2026-05-07 18:05 | 19.84401 | -21.03010 | 32974 ft | 462 kts | 214° |
| 2026-05-07 18:05 | 19.78881 | -21.06495 | 32974 ft | 463 kts | 214° |
| 2026-05-07 18:06 | 19.73322 | -21.10001 | 32973 ft | 462 kts | 214° |
| 2026-05-07 18:06 | 19.67801 | -21.13480 | 32974 ft | 463 kts | 214° |
| 2026-05-07 18:07 | 19.62219 | -21.16997 | 32974 ft | 465 kts | 214° |
| 2026-05-07 18:07 | 19.56659 | -21.20495 | 32969 ft | 466 kts | 214° |
| 2026-05-07 18:08 | 19.51037 | -21.24029 | 32967 ft | 467 kts | 214° |
| 2026-05-07 18:08 | 19.45458 | -21.27534 | 32971 ft | 466 kts | 214° |
| 2026-05-07 18:09 | 19.39962 | -21.30985 | 32973 ft | 467 kts | 213° |
| 2026-05-07 18:09 | 19.34368 | -21.34494 | 32974 ft | 468 kts | 213° |
| 2026-05-07 18:10 | 19.28737 | -21.38022 | 32973 ft | 468 kts | 213° |
| 2026-05-07 18:10 | 19.23126 | -21.41536 | 32974 ft | 469 kts | 213° |
| 2026-05-07 18:11 | 19.17469 | -21.45075 | 32973 ft | 470 kts | 213° |
| 2026-05-07 18:11 | 19.11838 | -21.48596 | 32972 ft | 469 kts | 213° |
| 2026-05-07 18:12 | 19.06198 | -21.52120 | 32973 ft | 469 kts | 213° |
| 2026-05-07 18:12 | 19.00581 | -21.55626 | 32974 ft | 471 kts | 213° |
| 2026-05-07 18:13 | 18.94951 | -21.59137 | 32971 ft | 470 kts | 213° |
| 2026-05-07 18:13 | 18.89295 | -21.62661 | 32961 ft | 469 kts | 213° |
| 2026-05-07 18:14 | 18.83697 | -21.66147 | 32973 ft | 468 kts | 213° |
| 2026-05-07 18:14 | 18.78047 | -21.69664 | 32975 ft | 468 kts | 213° |
| 2026-05-07 18:15 | 18.72409 | -21.73169 | 32974 ft | 467 kts | 213° |
| 2026-05-07 18:15 | 18.66817 | -21.76643 | 32979 ft | 467 kts | 213° |
| 2026-05-07 18:16 | 18.61175 | -21.80145 | 32975 ft | 467 kts | 213° |
| 2026-05-07 18:16 | 18.55577 | -21.83617 | 32974 ft | 465 kts | 213° |
| 2026-05-07 18:17 | 18.49965 | -21.87096 | 32966 ft | 465 kts | 213° |
| 2026-05-07 18:17 | 18.44329 | -21.90587 | 32968 ft | 466 kts | 213° |
| 2026-05-07 18:18 | 18.38755 | -21.94037 | 32974 ft | 463 kts | 213° |
| 2026-05-07 18:18 | 18.33177 | -21.97487 | 32727 ft | 468 kts | 213° |
| 2026-05-07 18:18 | 18.30351 | -21.99233 | 32146 ft | 470 kts | 213° |
| 2026-05-07 18:19 | 18.27554 | -22.00961 | 31594 ft | 465 kts | 213° |
| 2026-05-07 18:19 | 18.24778 | -22.02674 | 31043 ft | 461 kts | 213° |
| 2026-05-07 18:19 | 18.22039 | -22.04365 | 30507 ft | 459 kts | 213° |
| 2026-05-07 18:19 | 18.19252 | -22.06086 | 29969 ft | 458 kts | 213° |
| 2026-05-07 18:20 | 18.16509 | -22.07778 | 29448 ft | 460 kts | 213° |
| 2026-05-07 18:20 | 18.13829 | -22.09432 | 28944 ft | 462 kts | 213° |
| 2026-05-07 18:20 | 18.11049 | -22.11146 | 28418 ft | 463 kts | 213° |
| 2026-05-07 18:20 | 18.08291 | -22.12845 | 27926 ft | 459 kts | 213° |
| 2026-05-07 18:21 | 18.05542 | -22.14539 | 27422 ft | 453 kts | 213° |
| 2026-05-07 18:21 | 18.02833 | -22.16205 | 26888 ft | 448 kts | 213° |
| 2026-05-07 18:21 | 18.00141 | -22.17863 | 26366 ft | 444 kts | 212° |
| 2026-05-07 18:21 | 17.97481 | -22.19502 | 25861 ft | 442 kts | 212° |
| 2026-05-07 18:22 | 17.94849 | -22.21120 | 25366 ft | 439 kts | 213° |
| 2026-05-07 18:22 | 17.93102 | -22.22194 | 25036 ft | 437 kts | 213° |
| 2026-05-07 18:22 | 17.89585 | -22.24333 | 24376 ft | 433 kts | 210° |
| 2026-05-07 18:22 | 17.86844 | -22.25611 | 23902 ft | 431 kts | 204° |
| 2026-05-07 18:23 | 17.84020 | -22.26831 | 23422 ft | 428 kts | 204° |
| 2026-05-07 18:23 | 17.81257 | -22.28014 | 22952 ft | 425 kts | 204° |
| 2026-05-07 18:23 | 17.78539 | -22.29177 | 22494 ft | 421 kts | 204° |
| 2026-05-07 18:23 | 17.75806 | -22.30339 | 22038 ft | 418 kts | 204° |
| 2026-05-07 18:24 | 17.73129 | -22.31479 | 21590 ft | 417 kts | 204° |
| 2026-05-07 18:24 | 17.70436 | -22.32622 | 21142 ft | 414 kts | 204° |
| 2026-05-07 18:24 | 17.67759 | -22.33758 | 20692 ft | 413 kts | 204° |
| 2026-05-07 18:24 | 17.65127 | -22.34874 | 20254 ft | 410 kts | 204° |
| 2026-05-07 18:25 | 17.62484 | -22.35994 | 19805 ft | 408 kts | 203° |
| 2026-05-07 18:25 | 17.59837 | -22.37115 | 19356 ft | 405 kts | 203° |
| 2026-05-07 18:25 | 17.57244 | -22.38213 | 18917 ft | 403 kts | 203° |
| 2026-05-07 18:25 | 17.54615 | -22.39326 | 18470 ft | 401 kts | 203° |
| 2026-05-07 18:26 | 17.52042 | -22.40415 | 18032 ft | 399 kts | 203° |
| 2026-05-07 18:26 | 17.49573 | -22.41460 | 17611 ft | 397 kts | 203° |
| 2026-05-07 18:26 | 17.47031 | -22.42534 | 17183 ft | 394 kts | 203° |
| 2026-05-07 18:26 | 17.44473 | -22.43615 | 16752 ft | 390 kts | 203° |
| 2026-05-07 18:27 | 17.41977 | -22.44670 | 16329 ft | 386 kts | 203° |
| 2026-05-07 18:27 | 17.39497 | -22.45718 | 15905 ft | 382 kts | 203° |
| 2026-05-07 18:27 | 17.37016 | -22.46766 | 15481 ft | 378 kts | 204° |
| 2026-05-07 18:27 | 17.35372 | -22.47460 | 15196 ft | 375 kts | 204° |
| 2026-05-07 18:28 | 17.32154 | -22.48818 | 14640 ft | 371 kts | 204° |
| 2026-05-07 18:28 | 17.29753 | -22.49831 | 14220 ft | 367 kts | 204° |
| 2026-05-07 18:28 | 17.27381 | -22.50832 | 13803 ft | 365 kts | 204° |
| 2026-05-07 18:28 | 17.25044 | -22.51818 | 13396 ft | 361 kts | 204° |
| 2026-05-07 18:29 | 17.22694 | -22.52809 | 12976 ft | 359 kts | 204° |
| 2026-05-07 18:29 | 17.20380 | -22.53785 | 12567 ft | 357 kts | 204° |
| 2026-05-07 18:29 | 17.18173 | -22.54714 | 12174 ft | 353 kts | 204° |
| 2026-05-07 18:29 | 17.15884 | -22.55679 | 11766 ft | 351 kts | 204° |
| 2026-05-07 18:30 | 17.13609 | -22.56637 | 11360 ft | 349 kts | 205° |
| 2026-05-07 18:30 | 17.11376 | -22.57578 | 10960 ft | 349 kts | 205° |
| 2026-05-07 18:30 | 17.09171 | -22.58505 | 10564 ft | 346 kts | 205° |
| 2026-05-07 18:30 | 17.06945 | -22.59443 | 10170 ft | 342 kts | 205° |
| 2026-05-07 18:31 | 17.04737 | -22.60371 | 9776 ft | 337 kts | 205° |
| 2026-05-07 18:31 | 17.02571 | -22.61283 | 9408 ft | 331 kts | 205° |
| 2026-05-07 18:31 | 17.00456 | -22.62172 | 9070 ft | 325 kts | 205° |
| 2026-05-07 18:31 | 16.98391 | -22.63040 | 8944 ft | 312 kts | 205° |
| 2026-05-07 18:32 | 16.96391 | -22.63880 | 8864 ft | 299 kts | 205° |
| 2026-05-07 18:32 | 16.94479 | -22.64683 | 8788 ft | 287 kts | 205° |
| 2026-05-07 18:32 | 16.92654 | -22.65450 | 8629 ft | 280 kts | 205° |
| 2026-05-07 18:32 | 16.90865 | -22.66203 | 8415 ft | 275 kts | 205° |
| 2026-05-07 18:33 | 16.89070 | -22.66958 | 8204 ft | 273 kts | 205° |
| 2026-05-07 18:33 | 16.87300 | -22.67702 | 7995 ft | 272 kts | 205° |
| 2026-05-07 18:33 | 16.85542 | -22.68441 | 7770 ft | 273 kts | 205° |
| 2026-05-07 18:33 | 16.83768 | -22.69186 | 7538 ft | 273 kts | 205° |
| 2026-05-07 18:34 | 16.82092 | -22.69889 | 7314 ft | 272 kts | 205° |
| 2026-05-07 18:34 | 16.80328 | -22.70629 | 7072 ft | 272 kts | 205° |
| 2026-05-07 18:34 | 16.78569 | -22.71367 | 6785 ft | 271 kts | 205° |
| 2026-05-07 18:34 | 16.76782 | -22.72117 | 6446 ft | 272 kts | 205° |
| 2026-05-07 18:35 | 16.75021 | -22.72856 | 6169 ft | 270 kts | 205° |
| 2026-05-07 18:35 | 16.73354 | -22.73554 | 5871 ft | 270 kts | 205° |
| 2026-05-07 18:35 | 16.71606 | -22.74288 | 5547 ft | 270 kts | 204° |
| 2026-05-07 18:35 | 16.69842 | -22.75027 | 5243 ft | 269 kts | 204° |
| 2026-05-07 18:36 | 16.68105 | -22.75755 | 4945 ft | 268 kts | 204° |
| 2026-05-07 18:36 | 16.66363 | -22.76485 | 4610 ft | 269 kts | 204° |
| 2026-05-07 18:36 | 16.64622 | -22.77214 | 4294 ft | 269 kts | 203° |
| 2026-05-07 18:36 | 16.62884 | -22.77942 | 4008 ft | 267 kts | 203° |
| 2026-05-07 18:37 | 16.61209 | -22.78787 | 3659 ft | 267 kts | 216° |
| 2026-05-07 18:37 | 16.59774 | -22.80000 | 3387 ft | 265 kts | 224° |
| 2026-05-07 18:37 | 16.58464 | -22.81381 | 3055 ft | 265 kts | 230° |
| 2026-05-07 18:37 | 16.57337 | -22.82842 | 2978 ft | 254 kts | 236° |
| 2026-05-07 18:38 | 16.56369 | -22.84370 | 2936 ft | 243 kts | 242° |
| 2026-05-07 18:38 | 16.55572 | -22.85912 | 2719 ft | 240 kts | 246° |
| 2026-05-07 18:38 | 16.54913 | -22.87492 | 2453 ft | 237 kts | 251° |
| 2026-05-07 18:38 | 16.54383 | -22.89121 | 2187 ft | 233 kts | 256° |
| 2026-05-07 18:39 | 16.54032 | -22.90732 | 2120 ft | 219 kts | 269° |
| 2026-05-07 18:39 | 16.54331 | -22.92215 | 1980 ft | 205 kts | 307° |
| 2026-05-07 18:39 | 16.55360 | -22.93132 | 2020 ft | 197 kts | 336° |
| 2026-05-07 18:39 | 16.56598 | -22.93820 | 1993 ft | 198 kts | 334° |
| 2026-05-07 18:40 | 16.57767 | -22.94503 | 1957 ft | 186 kts | 338° |
| 2026-05-07 18:40 | 16.58987 | -22.94741 | 1990 ft | 177 kts | 2° |
| 2026-05-07 18:40 | 16.60264 | -22.94759 | 1995 ft | 182 kts | 0° |
| 2026-05-07 18:40 | 16.61510 | -22.94793 | 1982 ft | 171 kts | 1° |
| 2026-05-07 18:41 | 16.62633 | -22.94811 | 1986 ft | 167 kts | 2° |
| 2026-05-07 18:41 | 16.63814 | -22.94824 | 1804 ft | 165 kts | 2° |
| 2026-05-07 18:41 | 16.64918 | -22.94837 | 1565 ft | 151 kts | 2° |
| 2026-05-07 18:41 | 16.65952 | -22.94845 | 1355 ft | 143 kts | 3° |
| 2026-05-07 18:42 | 16.66941 | -22.94851 | 1254 ft | 140 kts | 4° |
| 2026-05-07 18:42 | 16.67933 | -22.94856 | 1155 ft | 146 kts | 4° |
| 2026-05-07 18:42 | 16.68975 | -22.94863 | 917 ft | 147 kts | 3° |
| 2026-05-07 18:42 | 16.69990 | -22.94877 | 669 ft | 143 kts | 3° |
| 2026-05-07 18:43 | 16.70986 | -22.94891 | 467 ft | 143 kts | 4° |
| 2026-05-07 18:43 | 16.71940 | -22.94892 | 299 ft | 143 kts | 4° |
| 2026-05-07 18:43 | 16.72927 | -22.94895 | 191 ft | 135 kts | 4° |
| 2026-05-07 18:43 | 16.73689 | -22.94894 | 194 ft | 76 kts | 359° |
| 2026-05-07 18:44 | 16.73868 | -22.94896 | 193 ft | 52 kts | 0° |
| 2026-05-07 18:44 | 16.74129 | -22.94899 | 188 ft | 45 kts | 360° |
| 2026-05-07 18:44 | 16.74438 | -22.94900 | 184 ft | 43 kts | 359° |
| 2026-05-07 18:44 | 16.74733 | -22.94901 | 179 ft | 41 kts | 1° |
| 2026-05-07 18:45 | 16.74987 | -22.94904 | 178 ft | 21 kts | 2° |
| 2026-05-07 18:45 | 16.75035 | -22.94816 | 178 ft | 15 kts | 117° |
| 2026-05-07 18:45 | 16.74982 | -22.94721 | 179 ft | 12 kts | 129° |
| 2026-05-07 18:45 | 16.74909 | -22.94704 | 180 ft | 11 kts | 180° |
| 2026-05-07 18:46 | 16.74820 | -22.94703 | 181 ft | 13 kts | 179° |
| 2026-05-07 18:46 | 16.74717 | -22.94702 | 182 ft | 15 kts | 179° |
| 2026-05-07 18:46 | 16.74601 | -22.94700 | 184 ft | 17 kts | 179° |
| 2026-05-07 18:46 | 16.74476 | -22.94701 | 185 ft | 20 kts | 180° |
| 2026-05-07 18:47 | 16.74326 | -22.94700 | 187 ft | 22 kts | 179° |
| 2026-05-07 18:47 | 16.74155 | -22.94699 | 188 ft | 26 kts | 180° |
| 2026-05-07 18:47 | 16.73960 | -22.94697 | 189 ft | 29 kts | 179° |
| 2026-05-07 18:47 | 16.73766 | -22.94696 | 191 ft | 23 kts | 180° |
| 2026-05-07 18:48 | 16.73638 | -22.94692 | 189 ft | 17 kts | 164° |
| 2026-05-07 18:48 | 16.73604 | -22.94606 | 186 ft | 7 kts | 129° |
| 2026-05-07 18:48 | 16.73544 | -22.94597 | 186 ft | 9 kts | 178° |
| 2026-05-07 18:48 | 16.73478 | -22.94595 | 188 ft | 9 kts | 179° |
| 2026-05-07 18:49 | 16.73402 | -22.94595 | 190 ft | 8 kts | 179° |
| 2026-05-07 18:49 | 16.73373 | -22.94589 | 190 ft | 3 kts | 148° |
| 2026-05-07 18:49 | 16.73364 | -22.94574 | 190 ft | 2 kts | 94° |
| 2026-05-07 18:49 | 16.73365 | -22.94548 | 191 ft | 5 kts | 89° |
| 2026-05-07 18:50 | 16.73366 | -22.94505 | 191 ft | 2 kts | 89° |
| 2026-05-07 18:50 | 16.73366 | -22.94500 | 191 ft | 0 kts | 89° |